Weather observations for the past three days for
Albion Municipal Airport
Imperial (Metric)
Date Time (cdt) Wind (mph) Vis. (mi.) Weather Sky Cond. Temperature (ºF) Relative Humidity Wind Chill (°F) Heat Index (°F) Pressure Precipitation (in)
Air Dwpt 6 hour altimeter (in) sea level (mb) 1 hr 3 hr 6 hr
Max. Min.
07 06:55 SW 10 10.00 Fair CLR 43 35.6 43.9 40.8 75% 38 29.84 0.0
07 06:35 SW 12 10.00 Fair CLR 41.7 35.2 78% 36 29.84 0.0
07 05:55 SW 8 10.00 Fair CLR 42.4 35.6 77% 38 29.86 0.0
07 05:35 W 10 10.00 Fair CLR 43 35.6 75% 38 29.86 0.0
07 05:15 SW 8 10.00 Fair CLR 42.8 35.6 76% 39 29.87 0.0
07 04:55 SW 9 10.00 Fair CLR 42.8 35.6 76% 38 29.87 0.0
07 04:35 SW 8 10.00 Fair CLR 43 35.6 75% 39 29.87 0.0
07 04:15 SW 9 10.00 Fair CLR 43.7 35.6 73% 39 29.88 0.0
07 03:55 SW 10 10.00 Fair CLR 43.9 35.6 73% 39 29.88 0.0
07 03:35 SW 9 10.00 Fair CLR 43.7 35.6 73% 39 29.89 0.0
07 03:15 SW 8 10.00 Fair CLR 42.4 34.7 74% 38 29.89 0.0
07 02:55 SW 6 10.00 Fair CLR 41.9 33.8 73% 39 29.9 0.0
07 02:35 SW 6 10.00 Fair CLR 41 32.7 72% 38 29.91 0.0
07 02:15 Calm 10.00 Fair CLR 41 32 70% 29.92 0.0
07 01:55 Calm 10.00 Fair CLR 41.9 32 68% 29.93 0.0
07 01:35 W 5 10.00 Fair CLR 43.2 32 65% 41 29.94 0.0
07 01:15 SW 6 10.00 Fair CLR 43.7 32.2 64% 41 29.95 0.0
07 00:55 SW 6 10.00 Fair CLR 43.2 31.5 59 39.2 63% 40 29.95 0.0
07 00:35 W 3 10.00 Fair CLR 45.1 31.1 58% 29.95 0.0
07 00:15 SW 5 10.00 Fair CLR 44.6 29.8 56% 43 29.96 0.0
06 23:35 Calm 10.00 Fair CLR 42.3 24.1 49% 29.97 0.0
06 23:15 Calm 10.00 Fair CLR 39.4 24.4 55% 29.97 0.0
06 22:55 Calm 10.00 Partly Cloudy SCT100 39.9 24.8 55% 29.97 0.0
06 22:35 Calm 10.00 Partly Cloudy SCT100 41.5 23.5 49% 29.98 0.0
06 22:15 Calm 10.00 Mostly Cloudy BKN100 45.9 23 41% 29.98 0.0
06 21:55 Calm 10.00 Overcast OVC110 47.3 23.5 39% 29.98 0.0
06 21:35 Calm 10.00 Overcast OVC110 46.6 25 43% 29.98 0.0
06 20:55 NW 5 10.00 Mostly Cloudy BKN100 50.4 21.2 32% 29.97 0.0
06 20:35 Calm 10.00 Mostly Cloudy BKN100 52.5 22.1 30% 29.97 0.0
06 20:15 W 3 10.00 Partly Cloudy SCT100 55.4 20.1 25% 29.97 0.0
06 19:55 W 6 10.00 Partly Cloudy SCT100 56.7 17.8 22% 29.97 0.0
06 19:35 W 7 10.00 Mostly Cloudy BKN100 57.6 19.2 22% 29.97 0.0
06 19:15 NW 8 10.00 Partly Cloudy SCT100 57.6 18.9 22% 29.98 0.0
06 18:55 NW 10 G 16 10.00 Mostly Cloudy BKN100 59 19.8 60.3 52.7 22% 29.98 0.0
06 18:35 NW 12 G 18 10.00 Mostly Cloudy BKN100 57.2 18.1 22% 29.99 0.0
06 18:15 W 13 10.00 Overcast OVC090 59 19.2 21% 29.99 0.0
06 17:55 NW 10 G 18 10.00 Mostly Cloudy BKN090 57 19.8 23% 29.99 0.0
06 17:35 W 13 G 17 10.00 Mostly Cloudy BKN090 59.4 20.3 22% 30 0.0
06 17:15 W 10 G 18 10.00 Mostly Cloudy BKN090 58.8 18.9 21% 30 0.0
06 16:55 NW 9 G 21 10.00 Mostly Cloudy BKN090 58.6 19.8 22% 30.01 0.0
06 16:35 W 10 G 16 10.00 Mostly Cloudy BKN090 58.8 21 23% 30.02 0.0
06 16:15 NW 10 G 18 10.00 Partly Cloudy SCT090 57.9 20.8 24% 30.02 0.0
06 15:55 W 8 G 23 10.00 Fair CLR 58.1 19.9 23% 30.04 0.0
06 15:35 W 8 G 22 10.00 Partly Cloudy SCT085 57.6 19.4 23% 30.04 0.0
06 15:15 W 8 G 16 10.00 Partly Cloudy SCT085 56.8 22.6 27% 30.05 0.0
06 14:55 N 12 G 25 10.00 Mostly Cloudy BKN085 57 21.7 25% 30.05 0.0
06 14:35 NW 9 G 22 10.00 Mostly Cloudy BKN075 55.8 23 28% 30.06 0.0
06 14:15 N 12 G 20 10.00 Mostly Cloudy BKN075 55.8 22.6 28% 30.07 0.0
06 13:55 N 10 10.00 Mostly Cloudy BKN075 55.4 21.9 27% 30.07 0.0
06 13:35 NW 8 G 20 10.00 Mostly Cloudy BKN075 53.4 21.9 29% 30.08 0.0
06 13:15 NW 10 G 24 10.00 Partly Cloudy SCT075 53.4 20.8 28% 30.08 0.0
06 12:55 NW 13 G 23 10.00 Partly Cloudy SCT075 54.3 23.2 54.9 35.1 30% 30.09 0.0
06 12:35 NW 13 G 18 10.00 Mostly Cloudy BKN075 52.2 21 29% 30.1 0.0
06 12:15 NW 9 G 21 10.00 Mostly Cloudy BKN075 53.4 22.5 30% 30.1 0.0
06 11:55 NW 9 10.00 Mostly Cloudy BKN075 52.7 23.4 32% 30.1 0.0
06 11:35 NW 9 G 17 10.00 Mostly Cloudy BKN075 52.2 22.5 31% 30.11 0.0
06 11:15 NW 15 G 22 10.00 Partly Cloudy SCT065 51.4 22.5 32% 30.11 0.0
06 10:55 NW 12 G 18 10.00 Partly Cloudy SCT065 51.6 23.7 34% 30.11 0.0
06 10:35 NW 10 G 23 10.00 Fair CLR 51.1 22.6 33% 30.11 0.0
06 10:15 NW 8 G 18 10.00 Fair CLR 50.2 23.2 35% 30.11 0.0
06 09:55 NW 7 10.00 Fair CLR 49.6 24.4 37% 47 30.11 0.0
06 09:35 NW 10 10.00 Fair CLR 48.9 25.3 40% 45 30.11 0.0
06 09:15 NW 6 10.00 Fair CLR 46.6 26.1 45% 44 30.11 0.0
06 08:55 NW 10 10.00 Fair CLR 45 26.4 48% 40 30.11 0.0
06 08:35 NW 8 10.00 Fair CLR 44.1 27 51% 40 30.1 0.0
06 08:15 NW 6 10.00 Fair CLR 41.2 27.5 58% 38 30.1 0.0
06 07:55 NW 5 10.00 Partly Cloudy SCT100 39.4 26.8 61% 37 30.1 0.0
06 07:35 NW 3 10.00 Partly Cloudy SCT100 37.6 28.6 70% 30.09 0.0
06 07:15 Calm 10.00 Partly Cloudy SCT100 36.3 28.9 75% 30.08 0.0
06 06:55 Calm 10.00 Overcast OVC100 34 29.8 39.2 31.8 85% 30.07 0.0
06 06:35 N 3 10.00 Overcast OVC090 32.5 28.6 85% 30.07 0.0
06 06:15 Calm 10.00 Overcast OVC090 32 27.7 84% 30.07 0.0
06 05:55 NW 3 10.00 Overcast OVC090 32 27 82% 30.06 0.0
06 05:35 Calm 10.00 Mostly Cloudy BKN090 32 27.1 82% 30.05 0.0
06 05:15 NW 3 10.00 Overcast OVC090 33.8 27.5 78% 30.05 0.0
06 04:55 Calm 10.00 Overcast OVC090 35.2 28.2 76% 30.05 0.0
06 04:35 Calm 10.00 Overcast OVC090 35.1 27.7 75% 30.05 0.0
06 04:15 Calm 10.00 Overcast OVC090 34.2 30.4 86% 30.05 0.0
06 03:55 Calm 10.00 Overcast OVC100 35.4 27.7 73% 30.03 0.0
06 03:35 Calm 10.00 Mostly Cloudy BKN100 35.6 27.1 71% 30.04 0.0
06 03:15 NW 5 10.00 Overcast OVC100 35.8 28.4 75% 32 30.04 0.0
06 02:55 NW 3 10.00 Overcast OVC100 36.1 29.1 76% 30.03 0.0
06 02:35 NW 3 10.00 Overcast OVC100 36.9 28.6 72% 30.03 0.0
06 02:15 Calm 10.00 Overcast OVC090 36.9 27.9 70% 30.03 0.0
06 01:55 NW 3 10.00 Partly Cloudy SCT090 36.1 28 72% 30.03 0.0
06 01:19 Calm 10.00 Fair CLR 37.4 26.6 65% 30.02 0.0
06 00:55 N 3 10.00 Fair CLR 39.2 24.3 51.4 38.1 55% 30.01 0.0
06 00:30 N 5 10.00 Fair CLR 38.1 27 64% 35 30.01 0.0
06 00:20 N 3 10.00 Fair CLR 39.2 27.1 62% 30.01 0.0
05 23:55 N 3 10.00 Fair CLR 41 25 53% 30.01 0.0
05 23:35 N 3 10.00 Fair CLR 40.5 24.6 53% 30.01 0.0
05 23:15 N 3 10.00 Fair CLR 40.3 24.8 54% 30 0.0
05 22:55 N 3 10.00 Fair CLR 41.5 23.9 50% 30 0.0
05 22:35 N 3 10.00 Fair CLR 42.4 24.4 49% 30 0.0
05 22:15 N 3 10.00 Fair CLR 44.2 24.1 45% 29.99 0.0
05 21:55 N 5 10.00 Fair CLR 46.4 22.1 38% 45 29.99 0.0
05 21:35 N 3 10.00 Fair CLR 46.4 23.5 41% 29.98 0.0
05 21:15 N 7 10.00 Fair CLR 48 21.4 35% 45 29.96 0.0
05 20:55 N 7 10.00 Fair CLR 47.8 22.1 36% 45 29.96 0.0
05 20:35 N 8 10.00 Fair CLR 48.7 21.4 34% 46 29.95 0.0
05 20:15 N 10 10.00 Fair CLR 49.3 21.9 34% 45 29.94 0.0
05 19:55 N 9 10.00 Fair CLR 50.2 22.1 33% 29.93 0.0
05 19:35 N 10 10.00 Fair CLR 50.9 23.2 34% 29.93 0.0
05 19:15 N 7 10.00 Fair CLR 51.3 23.7 34% 29.93 0.0
05 18:55 N 8 10.00 Fair CLR 51.6 22.6 55 51.4 32% 29.93 0.0
05 18:35 N 12 G 17 10.00 Fair CLR 52.7 24.3 33% 29.92 0.0
05 18:15 N 9 10.00 Fair CLR 52.7 23.5 32% 29.92 0.0
05 17:55 N 15 G 24 10.00 Fair CLR 52.7 25.9 35% 29.92 0.0
05 17:35 NW 13 10.00 Fair CLR 53.1 25.3 34% 29.92 0.0
05 17:15 N 16 G 20 10.00 Partly Cloudy SCT075 53.8 25.2 33% 29.92 0.0
05 16:55 NW 12 G 24 10.00 Partly Cloudy SCT075 54 26.1 34% 29.92 0.0
05 16:35 N 13 G 21 10.00 Partly Cloudy SCT065 53.1 26.1 35% 29.92 0.0
05 16:15 N 12 G 20 10.00 Partly Cloudy SCT065 53.1 25.5 34% 29.93 0.0
05 15:55 NW 12 10.00 Partly Cloudy SCT065 53.4 27 36% 29.94 0.0
05 15:35 N 15 G 22 10.00 Partly Cloudy SCT065 54 27.9 37% 29.94 0.0
05 15:15 NW 13 G 18 10.00 Mostly Cloudy BKN065 54 28 37% 29.94 0.0
05 14:55 NW 15 G 22 10.00 Overcast OVC065 53.6 28.4 38% 29.95 0.0
05 14:35 N 14 G 17 10.00 Overcast BKN070 OVC080 53.8 27.9 37% 29.95 0.0
05 14:15 W 9 G 21 10.00 Mostly Cloudy BKN060 55 29.8 38% 29.95 0.0
05 13:55 N 10 G 16 10.00 Overcast OVC060 53.6 29.1 39% 29.95 0.0
05 13:35 N 10 10.00 Mostly Cloudy BKN060 BKN075 53.2 29.1 40% 29.95 0.0
05 13:15 N 10 G 17 10.00 Mostly Cloudy BKN065 BKN070 52.5 27.5 38% 29.96 0.0
05 12:55 N 5 10.00 Mostly Cloudy BKN065 52 27.9 53.1 40.5 39% 29.97 0.0
05 12:35 NW 9 10.00 Partly Cloudy SCT060 SCT065 52.7 30 42% 29.97 0.0
05 12:15 N 8 10.00 Partly Cloudy SCT060 51.8 29.8 43% 29.98 0.0
05 11:55 Calm 10.00 Partly Cloudy SCT060 SCT070 50.9 28.2 42% 29.98 0.0
05 11:35 NE 3 10.00 Partly Cloudy SCT060 SCT090 51.1 30.2 45% 29.98 0.0
05 11:15 NW 6 10.00 Fair CLR 48.9 29.5 47% 47 29.98 0.0
05 10:35 N 5 10.00 Partly Cloudy SCT110 48.4 30.7 51% 47 29.97 0.0
05 10:15 N 7 10.00 Overcast OVC110 46.8 32.5 58% 44 29.96 0.0
05 09:55 N 5 10.00 Overcast SCT080 OVC100 46.8 32 57% 45 29.96 0.0
05 09:35 NW 3 10.00 Overcast BKN060 OVC080 46.4 32.4 58% 29.95 0.0
05 09:15 NW 5 10.00 Overcast SCT049 SCT055 OVC070 46.4 32.2 58% 45 29.95 0.0
05 08:55 NW 6 10.00 Overcast SCT075 BKN090 OVC110 45.7 33.6 63% 43 29.95 0.0
05 08:35 NW 5 10.00 Mostly Cloudy SCT070 SCT085 BKN110 45 34 66% 43 29.93 0.0
05 08:15 NW 3 10.00 Overcast OVC070 43.7 34.7 71% 29.92 0.0
05 07:55 NW 6 10.00 Overcast BKN070 BKN080 OVC120 43.3 33.8 69% 40 29.92 0.0
05 07:35 NW 6 10.00 Partly Cloudy SCT080 SCT120 43 34.2 71% 40 29.91 0.0
05 07:15 N 6 10.00 Fair CLR 42.1 34.3 74% 39 29.9 0.0
05 06:55 N 5 10.00 Partly Cloudy SCT110 39.9 35.6 44.6 39.2 85% 37 29.89 0.0
05 06:35 NW 5 10.00 Partly Cloudy SCT120 40.8 35.2 81% 38 29.89 0.0
05 06:15 Calm 10.00 Mostly Cloudy BKN110 41 33.8 76% 29.87 0.0
05 05:55 NW 3 10.00 Mostly Cloudy BKN110 40.8 34.3 78% 29.87 0.0
05 05:35 Calm 10.00 Partly Cloudy SCT110 40.1 34.2 79% 29.87 0.0
05 05:15 NW 6 10.00 Partly Cloudy SCT120 39.2 34.7 84% 36 29.88 0.0
05 04:55 Calm 10.00 Fair CLR 40.5 35.8 83% 29.87 0.0
05 04:35 N 3 10.00 Fair CLR 42.1 34.5 75% 29.87 0.0
05 04:15 N 3 10.00 Fair CLR 40.5 35.2 82% 29.87 0.0
05 03:55 N 3 10.00 Fair CLR 40.3 34.5 80% 29.86 0.0
05 03:35 NW 6 10.00 Fair CLR 40.1 35.6 84% 37 29.86 0.0
05 03:15 NW 5 10.00 Fair CLR 42.6 36 77% 40 29.85 0.0
05 02:55 NW 7 10.00 Partly Cloudy SCT120 42.3 36 78% 38 29.84 0.0
05 02:35 N 5 10.00 Fair CLR 42.3 37.2 82% 40 29.84 0.0
05 02:15 NW 3 10.00 Fair CLR 42.3 37 82% 29.84 0.0
05 01:55 NW 5 10.00 Fair CLR 42.1 37.4 84% 40 29.83 0.0
05 01:35 NW 3 10.00 Fair CLR 44.6 37.6 76% 29.83 0.0
05 01:15 Calm 10.00 Partly Cloudy SCT120 43.9 37.2 77% 29.82 0.0
05 00:55 Calm 10.00 Partly Cloudy SCT120 43.5 36.1 59.4 43.5 75% 29.82 0.0
05 00:35 N 3 10.00 Fair CLR 46 36.5 69% 29.82 0.0
05 00:15 Calm 10.00 Fair CLR 45.7 37.4 73% 29.82 0.0
04 23:55 Calm 10.00 Partly Cloudy SCT110 46.6 38.8 75% 29.84 0.0
04 23:35 Calm 10.00 Mostly Cloudy SCT075 BKN085 BKN110 51.1 38.8 63% 29.84 0.0
04 23:15 Calm 10.00 Overcast SCT075 OVC100 51.3 37.6 60% 29.86 0.0
04 22:55 Calm 10.00 Overcast OVC100 50.5 38.7 64% 29.86 0.0
04 22:35 N 5 10.00 Overcast OVC110 51.6 37 58% 29.83 0.0
04 22:15 NW 5 10.00 Overcast OVC110 50 38.1 64% 49 29.85 0.0
04 21:55 N 5 10.00 Mostly Cloudy BKN110 52.3 36 54% 29.83 0.0
04 21:35 N 5 10.00 Overcast OVC110 53.1 35.6 52% 29.83 0.0
04 21:15 N 6 10.00 Overcast SCT065 OVC100 53.8 35.4 50% 29.82 0.0
04 20:55 N 14 G 20 10.00 Mostly Cloudy SCT065 SCT075 BKN090 55.4 33.8 44% 29.79 0.0
04 20:35 N 10 10.00 Partly Cloudy SCT120 56.3 32 40% 29.78 0.0
04 20:15 N 12 G 18 10.00 Partly Cloudy SCT120 57.2 32 39% 29.79 0.0
04 19:55 N 8 10.00 Fair CLR 57.4 32.9 40% 29.79 0.0
04 19:35 N 15 G 20 10.00 Partly Cloudy SCT120 58.5 32.4 37% 29.76 0.0
04 19:15 N 15 G 22 10.00 Fair CLR 59 32.2 36% 29.77 0.0
04 18:55 N 12 G 21 10.00 Fair CLR 59.9 34.5 70.5 59.7 39% 29.77 0.0
04 18:35 N 15 G 23 10.00 Fair CLR 60.1 34 38% 29.77 0.0
04 18:15 N 18 G 24 10.00 Fair CLR 63 33.6 33% 29.77 0.0
04 17:55 N 15 G 24 10.00 Partly Cloudy SCT120 64.6 33.4 31% 29.75 0.0
04 17:35 N 15 G 28 10.00 Fair CLR 64.4 33.1 31% 29.73 0.0
04 17:15 N 18 G 24 10.00 Fair CLR 67.8 34.3 29% 29.72 0.0
04 16:55 N 18 G 30 10.00 Fair CLR 68.2 34.7 29% 29.71 0.0
04 16:35 N 15 G 24 10.00 Fair CLR 68.9 35.1 29% 29.71 0.0
04 16:15 N 18 G 25 10.00 Fair CLR 68.7 35.4 29% 29.7 0.0
04 15:55 N 21 G 28 10.00 Fair and Breezy CLR 68.9 36.9 31% 29.7 0.0
04 15:35 N 17 G 26 10.00 Fair CLR 69.8 35.4 28% 29.71 0.0
04 15:15 N 17 G 23 10.00 Fair CLR 70.3 36.9 29% 29.7 0.0
04 14:55 N 17 G 23 10.00 Fair CLR 69.6 36 29% 29.7 0.0
04 14:35 N 12 G 26 10.00 Fair CLR 69.3 35.2 29% 29.7 0.0
04 14:15 N 13 G 23 10.00 Fair CLR 69.6 35.1 28% 29.7 0.0
04 13:55 N 18 G 24 10.00 Fair CLR 70 34.9 28% 29.69 0.0
04 13:35 N 17 G 23 10.00 Fair CLR 69.6 35.1 28% 29.69 0.0
04 13:15 N 18 G 26 10.00 Fair CLR 69.8 34.9 28% 29.69 0.0
04 12:55 N 14 G 24 10.00 Fair CLR 68.9 36.5 71.6 48.7 30% 29.68 0.0
04 12:35 N 16 G 22 10.00 Fair CLR 68.5 39.2 34% 29.69 0.0
04 12:15 N 15 G 24 10.00 Fair CLR 68.7 42.3 38% 29.68 0.0
04 11:55 N 14 10.00 Fair CLR 68 43 40% 29.68 0.0
04 11:35 N 18 G 24 10.00 Fair CLR 67.6 43.5 42% 29.68 0.0
04 11:15 N 17 G 26 10.00 Fair CLR 67.8 44.6 43% 29.67 0.0
04 10:55 N 15 G 26 10.00 Fair CLR 68.2 43.7 41% 29.66 0.0
04 10:35 NW 17 10.00 Fair CLR 69.6 44.1 40% 29.65 0.0
04 10:15 N 23 G 29 10.00 Fair and Breezy CLR 70.7 42.1 36% 29.64 0.0
04 09:55 W 15 G 20 10.00 Fair CLR 71.1 40.6 33% 29.63 0.0
04 09:35 W 14 G 18 10.00 Fair CLR 68.9 39 34% 29.62 0.0
04 09:15 W 8 10.00 Fair CLR 67.1 41 39% 29.62 0.0
04 08:55 W 5 10.00 Fair CLR 65.8 41 40% 29.63 0.0
04 08:35 Calm 10.00 Fair CLR 63.1 42.1 46% 29.63 0.0
04 08:15 Calm 10.00 Fair CLR 59.9 41.7 51% 29.63 0.0
04 07:55 NW 3 10.00 Fair CLR 56.8 41.2 56% 29.63 0.0
04 07:35 NW 3 10.00 Fair CLR 53.2 40.3 62% 29.63 0.0
Date Time (cdt) Wind (mph) Vis. (mi.) Weather Sky Cond. Air Dwpt Max. Min. Relative Humidity Wind Chill (°F) Heat Index (°F) altimeter (in) sea level (mb) 1 hr 3 hr 6 hr
6 hour
Temperature (ºF) Pressure Precipitation (in)